Arkadelphia, Alabama
Current Conditions -  °F | °C
As of 6:15 PM on Friday 24 Oct 2014 (Local Time) from KJFX Reporting Station
Clear Clear  
Wind Chill: 63°   Ceiling: Unl
Heat Index: 63°   Visibility: 10mi
Dew Point: 46°   Wind: 0mph
Humidity: 55%   Direction: NA
Pressure: 30.06"   Gusts: NA
Location:  33.9511°N, 87.0046°W
Report Text: KJFX 242315Z AUTO 00000KT 10SM CLR 17/08 A3006 RMK A02 P-128
Loading
Personal Weather Stations






























Interactive Weather Map
Tropical Storm Tracking
New forecast layout! Learn more

10-Day Weather Forecast

Advertisements
Track Severe Weather on mobile